createdAt,value
2022-08-09T00:01:05.589Z,100.00
2022-08-09T00:04:05.838Z,100.00
2022-08-09T00:06:24.556Z,100.00
2022-08-09T00:08:52.173Z,100.00
2022-08-09T00:11:25.212Z,100.00
2022-08-09T00:13:52.125Z,100.00
2022-08-09T00:16:26.546Z,100.00
2022-08-09T00:19:09.510Z,100.00
2022-08-09T00:21:38.152Z,100.00
2022-08-09T00:24:23.620Z,100.00
2022-08-09T00:26:51.716Z,100.00
2022-08-09T00:29:39.946Z,100.00
2022-08-09T00:32:05.590Z,100.00
2022-08-09T00:34:33.411Z,100.00
2022-08-09T00:37:00.279Z,100.00
2022-08-09T00:40:13.433Z,100.00
2022-08-09T00:44:11.268Z,100.00
2022-08-09T00:44:59.708Z,100.00
2022-08-09T00:47:33.085Z,100.00
2022-08-09T00:50:02.789Z,100.00
2022-08-09T00:52:30.882Z,100.00
2022-08-09T00:55:01.669Z,100.00
2022-08-09T00:57:34.411Z,100.00
2022-08-09T01:00:21.246Z,100.00
2022-08-09T01:02:53.652Z,100.00
2022-08-09T01:05:50.638Z,100.00
2022-08-09T01:08:33.371Z,100.00
2022-08-09T01:11:22.941Z,100.00
2022-08-09T01:14:02.457Z,100.00
2022-08-09T01:16:35.169Z,100.00
2022-08-09T01:19:16.739Z,100.00
2022-08-09T01:22:42.681Z,100.00
2022-08-09T01:25:19.104Z,100.00
2022-08-09T01:27:51.424Z,100.00
2022-08-09T01:30:33.678Z,100.00
2022-08-09T01:33:06.242Z,100.00
2022-08-09T01:35:51.841Z,100.00
2022-08-09T01:38:23.451Z,100.00
2022-08-09T01:41:02.976Z,100.00
2022-08-09T01:43:51.330Z,100.00
2022-08-09T01:46:26.475Z,100.00
2022-08-09T01:49:00.206Z,100.00
2022-08-09T01:51:38.429Z,100.00
2022-08-09T01:54:10.486Z,100.00
2022-08-09T01:56:40.355Z,100.00
2022-08-09T01:59:11.079Z,100.00
2022-08-09T02:01:59.576Z,100.00
2022-08-09T02:04:29.569Z,100.00
2022-08-09T02:07:02.002Z,100.00
2022-08-09T02:09:41.827Z,100.00
2022-08-09T02:12:18.075Z,100.00
2022-08-09T02:14:51.802Z,100.00
2022-08-09T02:17:59.247Z,100.00
2022-08-09T02:20:10.194Z,100.00
2022-08-09T02:23:04.914Z,100.00
2022-08-09T02:25:42.190Z,100.00
2022-08-09T02:28:18.060Z,100.00
2022-08-09T02:31:02.251Z,100.00
2022-08-09T02:33:37.866Z,100.00
2022-08-09T02:36:08.469Z,100.00
2022-08-09T02:38:47.783Z,100.00
2022-08-09T02:41:22.410Z,100.00
2022-08-09T02:43:54.662Z,100.00
2022-08-09T02:46:27.347Z,100.00
2022-08-09T02:48:58.788Z,100.00
2022-08-09T02:51:28.008Z,100.00
2022-08-09T02:54:04.947Z,100.00
2022-08-09T02:56:34.281Z,100.00
2022-08-09T02:59:05.894Z,100.00
2022-08-09T03:01:43.324Z,100.00
2022-08-09T03:04:26.290Z,100.00
2022-08-09T03:06:56.984Z,100.00
2022-08-09T03:09:27.913Z,100.00
2022-08-09T03:12:05.856Z,100.00
2022-08-09T03:14:36.735Z,100.00
2022-08-09T03:17:05.713Z,100.00
2022-08-09T03:19:52.361Z,100.00
2022-08-09T03:22:30.083Z,100.00
2022-08-09T03:25:21.259Z,100.00
2022-08-09T03:27:48.067Z,100.00
2022-08-09T03:30:30.015Z,100.00
2022-08-09T03:33:05.765Z,100.00
2022-08-09T03:36:11.573Z,100.00
2022-08-09T03:38:30.740Z,100.00
2022-08-09T03:40:57.267Z,100.00
2022-08-09T03:43:23.736Z,100.00
2022-08-09T03:46:05.159Z,100.00
2022-08-09T03:48:51.522Z,100.00
2022-08-09T03:51:44.470Z,100.00
2022-08-09T03:54:11.038Z,100.00
2022-08-09T03:56:41.023Z,100.00
2022-08-09T03:59:17.369Z,100.00
2022-08-09T04:01:49.484Z,100.00
2022-08-09T04:04:17.397Z,100.00
2022-08-09T04:06:49.034Z,100.00
2022-08-09T04:09:41.645Z,100.00
2022-08-09T04:12:11.984Z,100.00
2022-08-09T04:15:00.646Z,100.00
2022-08-09T04:17:25.657Z,100.00
2022-08-09T04:19:56.340Z,100.00
2022-08-09T04:22:22.938Z,100.00
2022-08-09T04:24:49.374Z,100.00
2022-08-09T04:27:22.194Z,100.00
2022-08-09T04:29:49.367Z,100.00
2022-08-09T04:32:17.171Z,100.00
2022-08-09T04:34:57.953Z,100.00
2022-08-09T04:37:24.404Z,100.00
2022-08-09T04:40:11.802Z,100.00
2022-08-09T04:42:48.632Z,100.00
2022-08-09T04:45:15.679Z,100.00
2022-08-09T04:47:45.143Z,100.00
2022-08-09T04:50:33.690Z,100.00
2022-08-09T04:53:04.163Z,100.00
2022-08-09T04:55:37.939Z,100.00
2022-08-09T04:58:17.450Z,100.00
2022-08-09T05:00:44.653Z,100.00
2022-08-09T05:03:30.124Z,100.00
2022-08-09T05:06:06.794Z,100.00
2022-08-09T05:08:34.655Z,100.00
2022-08-09T05:11:02.433Z,100.00
2022-08-09T05:13:29.201Z,100.00
2022-08-09T05:16:00.054Z,100.00
2022-08-09T05:18:37.771Z,100.00
2022-08-09T05:21:09.803Z,100.00
2022-08-09T05:23:54.495Z,100.00
2022-08-09T05:26:29.700Z,100.00
2022-08-09T05:29:04.505Z,100.00
2022-08-09T05:31:44.216Z,100.00
2022-08-09T05:34:17.037Z,100.00
2022-08-09T05:36:47.042Z,100.00
2022-08-09T05:39:29.032Z,100.00
2022-08-09T05:42:01.701Z,100.00
2022-08-09T05:44:32.745Z,100.00
2022-08-09T05:47:01.271Z,100.00
2022-08-09T05:50:23.195Z,100.00
2022-08-09T05:52:19.222Z,100.00
2022-08-09T05:54:46.216Z,100.00
2022-08-09T05:57:17.652Z,100.00
2022-08-09T05:59:46.075Z,100.00
2022-08-09T06:02:17.142Z,100.00
2022-08-09T06:04:46.205Z,100.00
2022-08-09T06:07:21.957Z,100.00
2022-08-09T06:10:02.284Z,100.00
2022-08-09T06:12:30.588Z,100.00
2022-08-09T06:15:01.061Z,100.00
2022-08-09T06:17:39.364Z,100.00
2022-08-09T06:20:07.055Z,100.00
2022-08-09T06:22:34.507Z,100.00
2022-08-09T06:25:01.178Z,100.00
2022-08-09T06:27:43.100Z,100.00
2022-08-09T06:30:16.156Z,100.00
2022-08-09T06:32:58.735Z,100.00
2022-08-09T06:35:55.976Z,100.00
2022-08-09T06:38:15.903Z,100.00
2022-08-09T06:40:43.188Z,100.00
2022-08-09T06:43:10.581Z,100.00
2022-08-09T06:46:06.625Z,100.00
2022-08-09T06:48:26.069Z,100.00
2022-08-09T06:50:56.722Z,100.00
2022-08-09T06:53:23.211Z,100.00
2022-08-09T06:55:50.360Z,100.00
2022-08-09T07:00:47.597Z,100.00
2022-08-09T07:01:04.136Z,100.00
2022-08-09T07:03:30.855Z,100.00
2022-08-09T07:06:03.851Z,100.00
2022-08-09T07:08:31.941Z,100.00
2022-08-09T07:10:58.415Z,100.00
2022-08-09T07:13:28.152Z,100.00
2022-08-09T07:16:42.656Z,100.00
2022-08-09T07:18:43.035Z,100.00
2022-08-09T07:21:09.794Z,100.00
2022-08-09T07:23:56.690Z,100.00
2022-08-09T07:26:23.516Z,100.00
2022-08-09T07:29:01.308Z,100.00
2022-08-09T07:31:38.346Z,100.00
2022-08-09T07:34:05.248Z,100.00
2022-08-09T07:36:31.727Z,100.00
2022-08-09T07:39:00.759Z,100.00
2022-08-09T07:41:33.169Z,100.00
2022-08-09T07:44:05.659Z,100.00
2022-08-09T07:46:33.370Z,100.00
2022-08-09T07:49:03.462Z,100.00
2022-08-09T07:52:04.979Z,100.00
2022-08-09T07:54:19.260Z,100.00
2022-08-09T07:56:54.302Z,100.00
2022-08-09T07:59:25.516Z,100.00
2022-08-09T08:02:01.956Z,100.00
2022-08-09T08:04:31.448Z,100.00
2022-08-09T08:07:09.581Z,100.00
2022-08-09T08:09:53.341Z,100.00
2022-08-09T08:12:31.899Z,100.00
2022-08-09T08:14:58.462Z,100.00
2022-08-09T08:17:35.533Z,100.00
2022-08-09T08:20:13.538Z,100.00
2022-08-09T08:22:40.848Z,100.00
2022-08-09T08:25:13.294Z,100.00
2022-08-09T08:27:43.097Z,100.00
2022-08-09T08:30:11.967Z,100.00
2022-08-09T08:32:52.455Z,100.00
2022-08-09T08:35:20.190Z,100.00
2022-08-09T08:37:59.448Z,100.00
2022-08-09T08:40:29.709Z,100.00
2022-08-09T08:42:58.770Z,100.00
2022-08-09T08:45:51.402Z,100.00
2022-08-09T08:48:21.850Z,100.00
2022-08-09T08:50:49.424Z,100.00
2022-08-09T08:53:22.068Z,100.00
2022-08-09T08:55:48.997Z,100.00
2022-08-09T08:58:23.964Z,100.00
2022-08-09T09:00:57.086Z,100.00
2022-08-09T09:03:33.277Z,100.00
2022-08-09T09:06:05.312Z,100.00
2022-08-09T09:08:41.123Z,100.00
2022-08-09T09:11:17.279Z,100.00
2022-08-09T09:13:57.063Z,100.00
2022-08-09T09:16:35.135Z,100.00
2022-08-09T09:19:41.346Z,100.00
2022-08-09T09:22:11.473Z,99.97
2022-08-09T09:24:43.289Z,99.06
2022-08-09T09:27:22.151Z,100.00
2022-08-09T09:30:22.769Z,100.00
2022-08-09T09:33:14.352Z,100.00
2022-08-09T09:36:01.538Z,98.39
2022-08-09T09:38:40.483Z,96.44
2022-08-09T09:41:07.287Z,91.71
2022-08-09T09:43:41.591Z,99.06
2022-08-09T09:46:42.267Z,89.29
2022-08-09T09:49:18.753Z,88.19
2022-08-09T09:52:08.245Z,90.17
2022-08-09T09:55:24.305Z,89.96
2022-08-09T09:58:19.238Z,87.70
2022-08-09T10:00:52.610Z,84.03
2022-08-09T10:03:39.663Z,84.15
2022-08-09T10:06:06.984Z,92.68
2022-08-09T10:08:54.727Z,100.00
2022-08-09T10:14:33.221Z,95.26
2022-08-09T10:17:40.177Z,86.30
2022-08-09T10:19:57.195Z,81.46
2022-08-09T10:22:51.218Z,88.16
2022-08-09T10:25:21.531Z,87.22
2022-08-09T10:27:57.612Z,100.00
2022-08-09T10:34:04.895Z,95.15
2022-08-09T10:36:03.249Z,94.85
2022-08-09T10:38:34.071Z,96.42
2022-08-09T10:41:20.675Z,95.99
2022-08-09T10:44:01.397Z,96.97
2022-08-09T10:46:57.474Z,100.00
2022-08-09T10:49:49.697Z,98.30
2022-08-09T10:52:44.782Z,99.27
2022-08-09T10:55:49.380Z,93.65
2022-08-09T10:58:37.336Z,94.93
2022-08-09T11:03:06.683Z,97.79
2022-08-09T11:04:27.778Z,97.10
2022-08-09T11:07:01.172Z,96.98
2022-08-09T11:09:47.760Z,100.00
2022-08-09T11:12:22.835Z,100.00
2022-08-09T11:15:24.917Z,100.00
2022-08-09T11:18:02.764Z,100.00
2022-08-09T11:20:44.852Z,100.00
2022-08-09T11:23:11.973Z,97.43
2022-08-09T11:25:47.178Z,98.21
2022-08-09T11:28:38.776Z,97.91
2022-08-09T11:31:50.196Z,100.00
2022-08-09T11:34:34.974Z,98.67
2022-08-09T11:37:03.120Z,98.61
2022-08-09T11:40:00.519Z,98.20
2022-08-09T11:42:40.014Z,98.99
2022-08-09T11:45:21.911Z,97.60
2022-08-09T11:47:53.839Z,100.00
2022-08-09T11:50:55.301Z,100.00
2022-08-09T11:53:58.109Z,100.00
2022-08-09T11:56:02.737Z,100.00
2022-08-09T11:58:32.696Z,100.00
2022-08-09T12:01:08.268Z,100.00
2022-08-09T12:03:57.484Z,100.00
2022-08-09T12:06:24.746Z,100.00
2022-08-09T12:08:56.046Z,100.00
2022-08-09T12:11:25.916Z,97.96
2022-08-09T12:14:07.017Z,95.10
2022-08-09T12:16:42.907Z,92.82
2022-08-09T12:19:11.468Z,94.10
2022-08-09T12:21:48.428Z,94.98
2022-08-09T12:24:22.097Z,96.48
2022-08-09T12:28:57.685Z,96.90
2022-08-09T12:29:44.560Z,97.55
2022-08-09T12:32:26.839Z,96.74
2022-08-09T12:35:02.896Z,94.26
2022-08-09T12:37:33.161Z,95.16
2022-08-09T12:40:11.718Z,94.16
2022-08-09T12:42:43.927Z,95.48
2022-08-09T12:45:33.642Z,98.59
2022-08-09T12:47:58.010Z,98.97
2022-08-09T12:50:25.326Z,97.31
2022-08-09T12:53:09.650Z,94.12
2022-08-09T12:56:14.736Z,96.32
2022-08-09T12:58:28.350Z,97.02
2022-08-09T13:00:55.580Z,97.35
2022-08-09T13:03:53.167Z,95.72
2022-08-09T13:06:34.213Z,97.82
2022-08-09T13:09:13.978Z,94.92
2022-08-09T13:11:44.274Z,96.48
2022-08-09T13:14:42.348Z,95.77
2022-08-09T13:17:03.857Z,97.04
2022-08-09T13:20:09.012Z,96.20
2022-08-09T13:23:02.190Z,92.46
2022-08-09T13:25:12.186Z,89.39
2022-08-09T13:27:54.740Z,87.69
2022-08-09T13:30:51.592Z,86.05
2022-08-09T13:33:11.635Z,84.30
2022-08-09T13:36:41.839Z,82.93
2022-08-09T13:38:54.161Z,90.77
2022-08-09T13:41:57.643Z,81.53
2022-08-09T13:44:09.776Z,81.01
2022-08-09T13:47:27.489Z,81.00
2022-08-09T13:49:38.112Z,77.11
2022-08-09T13:52:18.161Z,77.36
2022-08-09T13:54:49.667Z,73.56
2022-08-09T13:57:36.748Z,71.45
2022-08-09T14:00:15.688Z,69.72
2022-08-09T14:03:03.277Z,70.46
2022-08-09T14:05:56.651Z,71.68
2022-08-09T14:08:21.489Z,67.30
2022-08-09T14:10:52.051Z,77.19
2022-08-09T14:14:16.417Z,73.42
2022-08-09T14:16:14.239Z,71.04
2022-08-09T14:18:45.276Z,72.15
2022-08-09T14:21:12.215Z,72.54
2022-08-09T14:23:40.145Z,71.71
2022-08-09T14:26:14.584Z,69.73
2022-08-09T14:28:41.817Z,70.53
2022-08-09T14:31:11.201Z,75.27
2022-08-09T14:33:38.289Z,67.38
2022-08-09T14:36:19.866Z,68.65
2022-08-09T14:38:47.532Z,69.19
2022-08-09T14:41:34.355Z,72.04
2022-08-09T14:44:03.648Z,68.47
2022-08-09T14:46:55.534Z,64.86
2022-08-09T14:49:17.207Z,68.86
2022-08-09T14:51:43.639Z,66.04
2022-08-09T14:54:10.087Z,62.14
2022-08-09T14:56:57.765Z,64.28
2022-08-09T14:59:23.448Z,63.09
2022-08-09T15:01:50.389Z,61.45
2022-08-09T15:04:17.248Z,62.25
2022-08-09T15:06:49.467Z,61.19
2022-08-09T15:10:03.313Z,63.83
2022-08-09T15:12:04.838Z,70.93
2022-08-09T15:14:38.618Z,64.61
2022-08-09T15:17:06.345Z,69.38
2022-08-09T15:19:36.055Z,69.45
2022-08-09T15:22:03.043Z,67.92
2022-08-09T15:24:29.743Z,71.06
2022-08-09T15:26:56.219Z,69.56
2022-08-09T15:30:59.834Z,70.11
2022-08-09T15:32:29.377Z,71.36
2022-08-09T15:34:57.638Z,77.15
2022-08-09T15:37:24.081Z,79.05
2022-08-09T15:40:19.801Z,78.85
2022-08-09T15:42:47.956Z,80.95
2022-08-09T15:45:21.620Z,82.84
2022-08-09T15:48:06.509Z,80.27
2022-08-09T15:50:43.702Z,76.72
2022-08-09T15:54:00.154Z,78.04
2022-08-09T15:56:21.064Z,71.73
2022-08-09T15:58:44.425Z,71.59
2022-08-09T16:01:13.280Z,72.34
2022-08-09T16:03:41.747Z,74.82
2022-08-09T16:06:32.570Z,75.70
2022-08-09T16:08:55.653Z,84.06
2022-08-09T16:11:22.135Z,88.12
2022-08-09T16:14:02.653Z,85.48
2022-08-09T16:16:33.085Z,91.41
2022-08-09T16:19:01.417Z,91.79
2022-08-09T16:21:27.992Z,96.01
2022-08-09T16:24:02.240Z,98.75
2022-08-09T16:26:34.408Z,100.00
2022-08-09T16:29:10.792Z,100.00
2022-08-09T16:32:18.882Z,100.00
2022-08-09T16:34:55.840Z,100.00
2022-08-09T16:37:55.328Z,100.00
2022-08-09T16:40:10.449Z,100.00
2022-08-09T16:42:37.789Z,100.00
2022-08-09T16:45:06.135Z,100.00
2022-08-09T16:48:39.963Z,100.00
2022-08-09T16:50:33.262Z,100.00
2022-08-09T16:53:01.775Z,100.00
2022-08-09T16:55:31.562Z,100.00
2022-08-09T16:58:16.487Z,100.00
2022-08-09T17:00:43.330Z,100.00
2022-08-09T17:03:21.039Z,100.00
2022-08-09T17:06:08.007Z,100.00
2022-08-09T17:09:01.045Z,100.00
2022-08-09T17:11:41.179Z,100.00
2022-08-09T17:14:26.677Z,100.00
2022-08-09T17:17:03.223Z,100.00
2022-08-09T17:19:46.786Z,100.00
2022-08-09T17:22:31.225Z,100.00
2022-08-09T17:25:03.262Z,100.00
2022-08-09T17:27:32.005Z,100.00
2022-08-09T17:29:58.491Z,100.00
2022-08-09T17:32:26.664Z,100.00
2022-08-09T17:35:10.931Z,100.00
2022-08-09T17:38:12.707Z,100.00
2022-08-09T17:40:29.918Z,100.00
2022-08-09T17:42:59.687Z,100.00
2022-08-09T17:46:02.114Z,100.00
2022-08-09T17:48:28.544Z,100.00
2022-08-09T17:50:59.514Z,100.00
2022-08-09T17:53:43.488Z,100.00
2022-08-09T17:56:14.833Z,100.00
2022-08-09T17:58:45.071Z,100.00
2022-08-09T18:01:22.236Z,100.00
2022-08-09T18:03:49.882Z,100.00
2022-08-09T18:06:30.700Z,100.00
2022-08-09T18:09:03.637Z,100.00
2022-08-09T18:11:31.642Z,100.00
2022-08-09T18:14:18.732Z,100.00
2022-08-09T18:16:49.385Z,100.00
2022-08-09T18:20:59.696Z,100.00
2022-08-09T18:22:04.606Z,100.00
2022-08-09T18:24:31.304Z,100.00
2022-08-09T18:26:57.972Z,100.00
2022-08-09T18:30:38.427Z,100.00
2022-08-09T18:32:14.138Z,100.00
2022-08-09T18:34:45.785Z,100.00
2022-08-09T18:37:47.395Z,100.00
2022-08-09T18:40:01.926Z,100.00
2022-08-09T18:42:29.419Z,100.00
2022-08-09T18:45:01.167Z,100.00
2022-08-09T18:47:37.196Z,100.00
2022-08-09T18:50:06.207Z,100.00
2022-08-09T18:52:36.103Z,100.00
2022-08-09T18:55:04.195Z,100.00
2022-08-09T18:57:42.973Z,100.00
2022-08-09T19:00:11.338Z,100.00
2022-08-09T19:02:43.112Z,100.00
2022-08-09T19:05:19.693Z,100.00
2022-08-09T19:08:04.459Z,100.00
2022-08-09T19:10:39.235Z,100.00
2022-08-09T19:13:23.568Z,100.00
2022-08-09T19:15:55.753Z,100.00
2022-08-09T19:18:36.596Z,100.00
2022-08-09T19:21:09.860Z,100.00
2022-08-09T19:24:32.489Z,100.00
2022-08-09T19:26:31.741Z,100.00
2022-08-09T19:29:15.427Z,100.00
2022-08-09T19:31:46.477Z,100.00
2022-08-09T19:34:18.234Z,100.00
2022-08-09T19:36:49.089Z,100.00
2022-08-09T19:39:15.911Z,100.00
2022-08-09T19:41:42.545Z,100.00
2022-08-09T19:44:09.094Z,100.00
2022-08-09T19:46:50.795Z,100.00
2022-08-09T19:50:07.188Z,100.00
2022-08-09T19:52:08.015Z,100.00
2022-08-09T19:54:34.759Z,100.00
2022-08-09T19:57:02.334Z,100.00
2022-08-09T19:59:57.958Z,100.00
2022-08-09T20:04:18.061Z,100.00
2022-08-09T20:05:02.631Z,100.00
2022-08-09T20:07:59.644Z,100.00
2022-08-09T20:10:28.059Z,100.00
2022-08-09T20:13:02.127Z,100.00
2022-08-09T20:16:32.901Z,100.00
2022-08-09T20:18:15.066Z,100.00
2022-08-09T20:20:43.732Z,100.00
2022-08-09T20:23:10.527Z,100.00
2022-08-09T20:25:51.328Z,100.00
2022-08-09T20:28:27.980Z,100.00
2022-08-09T20:31:04.686Z,100.00
2022-08-09T20:33:39.149Z,100.00
2022-08-09T20:36:10.572Z,100.00
2022-08-09T20:41:34.698Z,100.00
2022-08-09T20:44:10.147Z,100.00
2022-08-09T20:46:43.063Z,100.00
2022-08-09T20:49:11.425Z,100.00
2022-08-09T20:51:40.907Z,100.00
2022-08-09T20:54:12.791Z,100.00
2022-08-09T20:56:47.199Z,100.00
2022-08-09T20:59:17.607Z,100.00
2022-08-09T21:01:53.387Z,100.00
2022-08-09T21:05:54.618Z,100.00
2022-08-09T21:07:12.294Z,100.00
2022-08-09T21:09:55.753Z,100.00
2022-08-09T21:15:13.399Z,100.00
2022-08-09T21:18:21.319Z,100.00
2022-08-09T21:20:29.788Z,100.00
2022-08-09T21:22:57.294Z,100.00
2022-08-09T21:25:25.062Z,100.00
2022-08-09T21:27:53.147Z,100.00
2022-08-09T21:30:22.267Z,100.00
2022-08-09T21:32:49.028Z,100.00
2022-08-09T21:35:16.015Z,100.00
2022-08-09T21:37:58.702Z,100.00
2022-08-09T21:40:30.227Z,100.00
2022-08-09T21:42:59.258Z,100.00
2022-08-09T21:45:26.687Z,100.00
2022-08-09T21:47:53.214Z,100.00
2022-08-09T21:50:35.767Z,100.00
2022-08-09T21:53:06.261Z,100.00
2022-08-09T21:55:32.748Z,100.00
2022-08-09T21:58:00.682Z,100.00
2022-08-09T22:00:33.624Z,100.00
2022-08-09T22:03:04.842Z,100.00
2022-08-09T22:05:35.629Z,100.00
2022-08-09T22:08:13.634Z,100.00
2022-08-09T22:11:00.826Z,100.00
2022-08-09T22:13:33.913Z,100.00
2022-08-09T22:16:00.935Z,100.00
2022-08-09T22:18:32.670Z,100.00
2022-08-09T22:20:59.929Z,100.00
2022-08-09T22:23:27.028Z,100.00
2022-08-09T22:26:05.802Z,100.00
2022-08-09T22:28:47.164Z,100.00
2022-08-09T22:31:20.514Z,100.00
2022-08-09T22:33:48.849Z,100.00
2022-08-09T22:36:22.042Z,100.00
2022-08-09T22:38:48.826Z,100.00
2022-08-09T22:41:15.686Z,100.00
2022-08-09T22:44:02.220Z,100.00
2022-08-09T22:48:10.397Z,100.00
2022-08-09T22:49:16.104Z,100.00
2022-08-09T22:51:43.306Z,100.00
2022-08-09T22:54:16.050Z,100.00
2022-08-09T22:56:47.686Z,100.00
2022-08-09T22:59:57.702Z,100.00
2022-08-09T23:02:03.896Z,100.00
2022-08-09T23:04:32.587Z,100.00
2022-08-09T23:06:59.600Z,100.00
2022-08-09T23:09:26.045Z,100.00
2022-08-09T23:11:52.592Z,100.00
2022-08-09T23:14:37.710Z,100.00
2022-08-09T23:17:06.721Z,100.00
2022-08-09T23:20:06.521Z,100.00
2022-08-09T23:22:19.653Z,100.00
2022-08-09T23:24:48.708Z,100.00
2022-08-09T23:27:16.147Z,100.00
2022-08-09T23:29:42.637Z,100.00
2022-08-09T23:32:09.118Z,100.00
2022-08-09T23:34:35.839Z,100.00
2022-08-09T23:37:02.585Z,100.00
2022-08-09T23:39:29.102Z,100.00
2022-08-09T23:41:55.615Z,100.00
2022-08-09T23:44:22.161Z,100.00
2022-08-09T23:46:48.692Z,100.00
2022-08-09T23:49:25.058Z,100.00
2022-08-09T23:51:52.433Z,100.00
2022-08-09T23:54:19.739Z,100.00
2022-08-09T23:56:54.028Z,100.00
2022-08-09T23:59:22.347Z,100.00
